sensor_id;sensor_type;location;lat;lon;timestamp;temperature;humidity
7002;DHT22;3541;53.230;10.518;2022-07-24T00:00:47;16.30;99.90
7002;DHT22;3541;53.230;10.518;2022-07-24T00:03:13;16.20;99.90
7002;DHT22;3541;53.230;10.518;2022-07-24T00:05:40;16.20;99.90
7002;DHT22;3541;53.230;10.518;2022-07-24T00:08:06;16.20;99.90
7002;DHT22;3541;53.230;10.518;2022-07-24T00:10:33;16.20;99.90
7002;DHT22;3541;53.230;10.518;2022-07-24T00:13:01;16.20;99.90
7002;DHT22;3541;53.230;10.518;2022-07-24T00:15:27;16.20;99.90
7002;DHT22;3541;53.230;10.518;2022-07-24T00:17:54;16.10;99.90
7002;DHT22;3541;53.230;10.518;2022-07-24T00:20:21;16.10;99.90
7002;DHT22;3541;53.230;10.518;2022-07-24T00:22:48;16.10;99.90
7002;DHT22;3541;53.230;10.518;2022-07-24T00:25:15;16.00;99.90
7002;DHT22;3541;53.230;10.518;2022-07-24T00:27:42;16.00;99.90
7002;DHT22;3541;53.230;10.518;2022-07-24T00:30:10;15.90;99.90
7002;DHT22;3541;53.230;10.518;2022-07-24T00:32:37;15.90;99.90
7002;DHT22;3541;53.230;10.518;2022-07-24T00:35:04;15.90;99.90
7002;DHT22;3541;53.230;10.518;2022-07-24T00:37:31;15.90;99.90
7002;DHT22;3541;53.230;10.518;2022-07-24T00:39:58;15.80;99.90
7002;DHT22;3541;53.230;10.518;2022-07-24T00:42:24;15.90;99.90
7002;DHT22;3541;53.230;10.518;2022-07-24T00:44:51;15.90;99.90
7002;DHT22;3541;53.230;10.518;2022-07-24T00:47:19;15.80;99.90
7002;DHT22;3541;53.230;10.518;2022-07-24T00:49:46;15.80;99.90
7002;DHT22;3541;53.230;10.518;2022-07-24T00:52:12;15.80;99.90
7002;DHT22;3541;53.230;10.518;2022-07-24T00:54:39;15.80;99.90
7002;DHT22;3541;53.230;10.518;2022-07-24T00:57:06;15.80;99.90
7002;DHT22;3541;53.230;10.518;2022-07-24T00:59:33;15.70;99.90
7002;DHT22;3541;53.230;10.518;2022-07-24T01:01:59;15.70;99.90
7002;DHT22;3541;53.230;10.518;2022-07-24T01:04:27;15.70;99.90
7002;DHT22;3541;53.230;10.518;2022-07-24T01:06:54;15.70;99.90
7002;DHT22;3541;53.230;10.518;2022-07-24T01:09:21;15.70;99.90
7002;DHT22;3541;53.230;10.518;2022-07-24T01:11:47;15.60;99.90
7002;DHT22;3541;53.230;10.518;2022-07-24T01:14:15;15.60;99.90
7002;DHT22;3541;53.230;10.518;2022-07-24T01:16:42;15.60;99.90
7002;DHT22;3541;53.230;10.518;2022-07-24T01:19:08;15.60;99.90
7002;DHT22;3541;53.230;10.518;2022-07-24T01:21:36;15.60;99.90
7002;DHT22;3541;53.230;10.518;2022-07-24T01:24:04;15.60;99.90
7002;DHT22;3541;53.230;10.518;2022-07-24T01:26:30;15.60;99.90
7002;DHT22;3541;53.230;10.518;2022-07-24T01:28:57;15.50;99.90
7002;DHT22;3541;53.230;10.518;2022-07-24T01:31:23;15.40;99.90
7002;DHT22;3541;53.230;10.518;2022-07-24T01:33:50;15.40;99.90
7002;DHT22;3541;53.230;10.518;2022-07-24T01:36:17;15.40;99.90
7002;DHT22;3541;53.230;10.518;2022-07-24T01:38:45;15.40;99.90
7002;DHT22;3541;53.230;10.518;2022-07-24T01:41:11;15.50;99.90
7002;DHT22;3541;53.230;10.518;2022-07-24T01:43:38;15.40;99.90
7002;DHT22;3541;53.230;10.518;2022-07-24T01:46:05;15.40;99.90
7002;DHT22;3541;53.230;10.518;2022-07-24T01:48:31;15.30;99.90
7002;DHT22;3541;53.230;10.518;2022-07-24T01:50:58;15.30;99.90
7002;DHT22;3541;53.230;10.518;2022-07-24T01:53:25;15.20;99.90
7002;DHT22;3541;53.230;10.518;2022-07-24T01:55:53;15.20;99.90
7002;DHT22;3541;53.230;10.518;2022-07-24T01:58:20;15.20;99.90
7002;DHT22;3541;53.230;10.518;2022-07-24T02:00:46;15.20;99.90
7002;DHT22;3541;53.230;10.518;2022-07-24T02:03:13;15.20;99.90
7002;DHT22;3541;53.230;10.518;2022-07-24T02:05:40;15.10;99.90
7002;DHT22;3541;53.230;10.518;2022-07-24T02:08:07;15.20;99.90
7002;DHT22;3541;53.230;10.518;2022-07-24T02:10:34;15.10;99.90
7002;DHT22;3541;53.230;10.518;2022-07-24T02:13:02;15.10;99.90
7002;DHT22;3541;53.230;10.518;2022-07-24T02:15:28;15.00;99.90
7002;DHT22;3541;53.230;10.518;2022-07-24T02:17:56;14.90;99.90
7002;DHT22;3541;53.230;10.518;2022-07-24T02:20:24;14.90;99.90
7002;DHT22;3541;53.230;10.518;2022-07-24T02:22:51;15.00;99.90
7002;DHT22;3541;53.230;10.518;2022-07-24T02:25:18;14.90;99.90
7002;DHT22;3541;53.230;10.518;2022-07-24T02:27:45;14.90;99.90
7002;DHT22;3541;53.230;10.518;2022-07-24T02:30:15;14.80;99.90
7002;DHT22;3541;53.230;10.518;2022-07-24T02:32:42;14.80;99.90
7002;DHT22;3541;53.230;10.518;2022-07-24T02:35:09;14.90;99.90
7002;DHT22;3541;53.230;10.518;2022-07-24T02:37:37;14.90;99.90
7002;DHT22;3541;53.230;10.518;2022-07-24T02:40:05;14.90;99.90
7002;DHT22;3541;53.230;10.518;2022-07-24T02:42:32;14.90;99.90
7002;DHT22;3541;53.230;10.518;2022-07-24T02:44:59;14.90;99.90
7002;DHT22;3541;53.230;10.518;2022-07-24T02:47:27;14.80;99.90
7002;DHT22;3541;53.230;10.518;2022-07-24T02:49:53;14.90;99.90
7002;DHT22;3541;53.230;10.518;2022-07-24T02:52:20;14.90;99.90
7002;DHT22;3541;53.230;10.518;2022-07-24T02:54:46;14.80;99.90
7002;DHT22;3541;53.230;10.518;2022-07-24T02:57:13;14.80;99.90
7002;DHT22;3541;53.230;10.518;2022-07-24T02:59:40;14.70;99.90
7002;DHT22;3541;53.230;10.518;2022-07-24T03:02:06;14.60;99.90
7002;DHT22;3541;53.230;10.518;2022-07-24T03:04:34;14.60;99.90
7002;DHT22;3541;53.230;10.518;2022-07-24T03:07:01;14.60;99.90
7002;DHT22;3541;53.230;10.518;2022-07-24T03:09:28;14.60;99.90
7002;DHT22;3541;53.230;10.518;2022-07-24T03:11:54;14.60;99.90
7002;DHT22;3541;53.230;10.518;2022-07-24T03:14:21;14.60;99.90
7002;DHT22;3541;53.230;10.518;2022-07-24T03:16:47;14.60;99.90
7002;DHT22;3541;53.230;10.518;2022-07-24T03:19:14;14.60;99.90
7002;DHT22;3541;53.230;10.518;2022-07-24T03:21:42;14.70;99.90
7002;DHT22;3541;53.230;10.518;2022-07-24T03:24:08;14.70;99.90
7002;DHT22;3541;53.230;10.518;2022-07-24T03:26:35;14.70;99.90
7002;DHT22;3541;53.230;10.518;2022-07-24T03:29:01;14.70;99.90
7002;DHT22;3541;53.230;10.518;2022-07-24T03:31:28;14.70;99.90
7002;DHT22;3541;53.230;10.518;2022-07-24T03:33:55;14.70;99.90
7002;DHT22;3541;53.230;10.518;2022-07-24T03:36:21;14.70;99.90
7002;DHT22;3541;53.230;10.518;2022-07-24T03:38:49;14.60;99.90
7002;DHT22;3541;53.230;10.518;2022-07-24T03:41:16;14.60;99.90
7002;DHT22;3541;53.230;10.518;2022-07-24T03:43:43;14.60;99.90
7002;DHT22;3541;53.230;10.518;2022-07-24T03:46:09;14.50;99.90
7002;DHT22;3541;53.230;10.518;2022-07-24T03:48:36;14.50;99.90
7002;DHT22;3541;53.230;10.518;2022-07-24T03:51:03;14.60;99.90
7002;DHT22;3541;53.230;10.518;2022-07-24T03:53:29;14.60;99.90
7002;DHT22;3541;53.230;10.518;2022-07-24T03:55:57;14.60;99.90
7002;DHT22;3541;53.230;10.518;2022-07-24T03:58:24;14.70;99.90
7002;DHT22;3541;53.230;10.518;2022-07-24T04:00:50;14.70;99.90
7002;DHT22;3541;53.230;10.518;2022-07-24T04:03:17;14.60;99.90
7002;DHT22;3541;53.230;10.518;2022-07-24T04:05:43;14.50;99.90
7002;DHT22;3541;53.230;10.518;2022-07-24T04:08:10;14.50;99.90
7002;DHT22;3541;53.230;10.518;2022-07-24T04:10:36;14.50;99.90
7002;DHT22;3541;53.230;10.518;2022-07-24T04:13:04;14.50;99.90
7002;DHT22;3541;53.230;10.518;2022-07-24T04:15:31;14.50;99.90
7002;DHT22;3541;53.230;10.518;2022-07-24T04:17:58;14.60;99.90
7002;DHT22;3541;53.230;10.518;2022-07-24T04:20:24;14.60;99.90
7002;DHT22;3541;53.230;10.518;2022-07-24T04:22:51;14.70;99.90
7002;DHT22;3541;53.230;10.518;2022-07-24T04:25:18;14.80;99.90
7002;DHT22;3541;53.230;10.518;2022-07-24T04:27:45;14.80;99.90
7002;DHT22;3541;53.230;10.518;2022-07-24T04:30:14;14.90;99.90
7002;DHT22;3541;53.230;10.518;2022-07-24T04:32:41;14.90;99.90
7002;DHT22;3541;53.230;10.518;2022-07-24T04:35:07;14.90;99.90
7002;DHT22;3541;53.230;10.518;2022-07-24T04:37:34;14.90;99.90
7002;DHT22;3541;53.230;10.518;2022-07-24T04:40:01;14.90;99.90
7002;DHT22;3541;53.230;10.518;2022-07-24T04:42:27;15.00;99.90
7002;DHT22;3541;53.230;10.518;2022-07-24T04:44:54;15.10;99.90
7002;DHT22;3541;53.230;10.518;2022-07-24T04:47:22;15.10;99.90
7002;DHT22;3541;53.230;10.518;2022-07-24T04:49:48;15.10;99.90
7002;DHT22;3541;53.230;10.518;2022-07-24T04:52:15;15.10;99.90
7002;DHT22;3541;53.230;10.518;2022-07-24T04:54:42;15.10;99.90
7002;DHT22;3541;53.230;10.518;2022-07-24T04:57:08;15.10;99.90
7002;DHT22;3541;53.230;10.518;2022-07-24T04:59:35;15.20;99.90
7002;DHT22;3541;53.230;10.518;2022-07-24T05:02:01;15.20;99.90
7002;DHT22;3541;53.230;10.518;2022-07-24T05:04:29;15.10;99.90
7002;DHT22;3541;53.230;10.518;2022-07-24T05:06:56;15.20;99.90
7002;DHT22;3541;53.230;10.518;2022-07-24T05:09:22;15.20;99.90
7002;DHT22;3541;53.230;10.518;2022-07-24T05:11:49;15.20;99.90
7002;DHT22;3541;53.230;10.518;2022-07-24T05:14:15;15.20;99.90
7002;DHT22;3541;53.230;10.518;2022-07-24T05:16:42;15.20;99.90
7002;DHT22;3541;53.230;10.518;2022-07-24T05:19:09;15.20;99.90
7002;DHT22;3541;53.230;10.518;2022-07-24T05:21:36;15.30;99.90
7002;DHT22;3541;53.230;10.518;2022-07-24T05:24:04;15.20;99.90
7002;DHT22;3541;53.230;10.518;2022-07-24T05:26:31;15.30;99.90
7002;DHT22;3541;53.230;10.518;2022-07-24T05:28:57;15.30;99.90
7002;DHT22;3541;53.230;10.518;2022-07-24T05:31:24;15.30;99.90
7002;DHT22;3541;53.230;10.518;2022-07-24T05:33:51;15.30;99.90
7002;DHT22;3541;53.230;10.518;2022-07-24T05:36:18;15.40;99.90
7002;DHT22;3541;53.230;10.518;2022-07-24T05:38:47;15.50;99.90
7002;DHT22;3541;53.230;10.518;2022-07-24T05:41:13;15.50;99.90
7002;DHT22;3541;53.230;10.518;2022-07-24T05:43:40;15.50;99.90
7002;DHT22;3541;53.230;10.518;2022-07-24T05:46:07;15.50;99.90
7002;DHT22;3541;53.230;10.518;2022-07-24T05:48:33;15.50;99.90
7002;DHT22;3541;53.230;10.518;2022-07-24T05:51:00;15.60;99.90
7002;DHT22;3541;53.230;10.518;2022-07-24T05:53:27;15.60;99.90
7002;DHT22;3541;53.230;10.518;2022-07-24T05:55:55;15.70;99.90
7002;DHT22;3541;53.230;10.518;2022-07-24T05:58:21;15.70;99.90
7002;DHT22;3541;53.230;10.518;2022-07-24T06:00:48;15.80;99.90
7002;DHT22;3541;53.230;10.518;2022-07-24T06:03:14;15.90;99.90
7002;DHT22;3541;53.230;10.518;2022-07-24T06:05:41;15.90;99.90
7002;DHT22;3541;53.230;10.518;2022-07-24T06:08:08;16.00;99.90
7002;DHT22;3541;53.230;10.518;2022-07-24T06:10:35;16.00;99.90
7002;DHT22;3541;53.230;10.518;2022-07-24T06:13:03;16.10;99.90
7002;DHT22;3541;53.230;10.518;2022-07-24T06:15:29;16.10;99.90
7002;DHT22;3541;53.230;10.518;2022-07-24T06:17:56;16.20;99.90
7002;DHT22;3541;53.230;10.518;2022-07-24T06:20:22;16.30;99.90
7002;DHT22;3541;53.230;10.518;2022-07-24T06:22:49;16.40;99.90
7002;DHT22;3541;53.230;10.518;2022-07-24T06:25:17;16.40;99.90
7002;DHT22;3541;53.230;10.518;2022-07-24T06:27:45;16.50;99.90
7002;DHT22;3541;53.230;10.518;2022-07-24T06:30:14;16.60;99.90
7002;DHT22;3541;53.230;10.518;2022-07-24T06:32:41;16.60;99.90
7002;DHT22;3541;53.230;10.518;2022-07-24T06:35:09;16.70;99.90
7002;DHT22;3541;53.230;10.518;2022-07-24T06:37:36;16.70;99.90
7002;DHT22;3541;53.230;10.518;2022-07-24T06:40:03;16.80;99.90
7002;DHT22;3541;53.230;10.518;2022-07-24T06:42:30;16.80;99.90
7002;DHT22;3541;53.230;10.518;2022-07-24T06:44:57;16.80;99.90
7002;DHT22;3541;53.230;10.518;2022-07-24T06:47:25;16.90;99.90
7002;DHT22;3541;53.230;10.518;2022-07-24T06:49:52;17.00;99.90
7002;DHT22;3541;53.230;10.518;2022-07-24T06:52:19;17.00;99.90
7002;DHT22;3541;53.230;10.518;2022-07-24T06:54:46;17.10;99.90
7002;DHT22;3541;53.230;10.518;2022-07-24T06:57:13;17.10;99.90
7002;DHT22;3541;53.230;10.518;2022-07-24T06:59:39;17.20;99.90
7002;DHT22;3541;53.230;10.518;2022-07-24T07:02:06;17.30;99.90
7002;DHT22;3541;53.230;10.518;2022-07-24T07:04:34;17.40;99.90
7002;DHT22;3541;53.230;10.518;2022-07-24T07:07:01;17.40;99.90
7002;DHT22;3541;53.230;10.518;2022-07-24T07:09:28;17.50;99.90
7002;DHT22;3541;53.230;10.518;2022-07-24T07:11:54;17.60;99.90
7002;DHT22;3541;53.230;10.518;2022-07-24T07:14:21;17.60;99.90
7002;DHT22;3541;53.230;10.518;2022-07-24T07:16:48;17.70;99.90
7002;DHT22;3541;53.230;10.518;2022-07-24T07:19:14;17.70;99.90
7002;DHT22;3541;53.230;10.518;2022-07-24T07:21:42;17.80;99.90
7002;DHT22;3541;53.230;10.518;2022-07-24T07:24:09;17.90;99.90
7002;DHT22;3541;53.230;10.518;2022-07-24T07:26:36;18.00;99.90
7002;DHT22;3541;53.230;10.518;2022-07-24T07:29:03;18.00;99.90
7002;DHT22;3541;53.230;10.518;2022-07-24T07:31:29;18.10;99.90
7002;DHT22;3541;53.230;10.518;2022-07-24T07:33:56;18.10;99.90
7002;DHT22;3541;53.230;10.518;2022-07-24T07:36:23;18.20;99.90
7002;DHT22;3541;53.230;10.518;2022-07-24T07:38:51;18.30;99.90
7002;DHT22;3541;53.230;10.518;2022-07-24T07:41:18;18.40;99.90
7002;DHT22;3541;53.230;10.518;2022-07-24T07:43:44;18.40;99.90
7002;DHT22;3541;53.230;10.518;2022-07-24T07:46:12;18.50;99.90
7002;DHT22;3541;53.230;10.518;2022-07-24T07:48:39;18.50;99.90
7002;DHT22;3541;53.230;10.518;2022-07-24T07:51:06;18.50;99.90
7002;DHT22;3541;53.230;10.518;2022-07-24T07:53:33;18.60;99.90
7002;DHT22;3541;53.230;10.518;2022-07-24T07:56:01;18.70;99.90
7002;DHT22;3541;53.230;10.518;2022-07-24T07:58:29;18.80;99.90
7002;DHT22;3541;53.230;10.518;2022-07-24T08:00:55;18.80;99.90
7002;DHT22;3541;53.230;10.518;2022-07-24T08:03:22;19.00;99.90
7002;DHT22;3541;53.230;10.518;2022-07-24T08:05:49;19.00;99.90
7002;DHT22;3541;53.230;10.518;2022-07-24T08:08:15;19.00;99.90
7002;DHT22;3541;53.230;10.518;2022-07-24T08:10:42;19.10;99.90
7002;DHT22;3541;53.230;10.518;2022-07-24T08:13:10;19.20;99.90
7002;DHT22;3541;53.230;10.518;2022-07-24T08:15:37;19.30;99.90
7002;DHT22;3541;53.230;10.518;2022-07-24T08:18:04;19.30;99.90
7002;DHT22;3541;53.230;10.518;2022-07-24T08:20:31;19.40;99.90
7002;DHT22;3541;53.230;10.518;2022-07-24T08:22:57;19.50;99.90
7002;DHT22;3541;53.230;10.518;2022-07-24T08:25:24;19.50;99.90
7002;DHT22;3541;53.230;10.518;2022-07-24T08:27:50;19.70;99.90
7002;DHT22;3541;53.230;10.518;2022-07-24T08:30:18;19.70;99.90
7002;DHT22;3541;53.230;10.518;2022-07-24T08:32:47;19.80;99.90
7002;DHT22;3541;53.230;10.518;2022-07-24T08:35:14;19.90;99.90
7002;DHT22;3541;53.230;10.518;2022-07-24T08:37:41;20.00;99.90
7002;DHT22;3541;53.230;10.518;2022-07-24T08:40:09;20.10;99.90
7002;DHT22;3541;53.230;10.518;2022-07-24T08:42:37;20.10;99.90
7002;DHT22;3541;53.230;10.518;2022-07-24T08:45:04;20.20;99.90
7002;DHT22;3541;53.230;10.518;2022-07-24T08:47:32;20.30;99.90
7002;DHT22;3541;53.230;10.518;2022-07-24T08:50:00;20.50;99.90
7002;DHT22;3541;53.230;10.518;2022-07-24T08:52:28;20.50;99.90
7002;DHT22;3541;53.230;10.518;2022-07-24T08:54:54;20.50;99.90
7002;DHT22;3541;53.230;10.518;2022-07-24T08:57:21;20.50;99.90
7002;DHT22;3541;53.230;10.518;2022-07-24T08:59:48;20.60;99.90
7002;DHT22;3541;53.230;10.518;2022-07-24T09:02:14;20.60;99.90
7002;DHT22;3541;53.230;10.518;2022-07-24T09:04:44;20.70;99.90
7002;DHT22;3541;53.230;10.518;2022-07-24T09:07:14;20.80;99.90
7002;DHT22;3541;53.230;10.518;2022-07-24T09:09:43;20.90;99.90
7002;DHT22;3541;53.230;10.518;2022-07-24T09:12:13;21.00;99.90
7002;DHT22;3541;53.230;10.518;2022-07-24T09:14:42;21.00;99.90
7002;DHT22;3541;53.230;10.518;2022-07-24T09:17:12;21.10;99.90
7002;DHT22;3541;53.230;10.518;2022-07-24T09:19:51;21.20;99.90
7002;DHT22;3541;53.230;10.518;2022-07-24T09:22:26;21.20;99.90
7002;DHT22;3541;53.230;10.518;2022-07-24T09:25:09;21.30;99.90
7002;DHT22;3541;53.230;10.518;2022-07-24T09:27:38;21.40;99.90
7002;DHT22;3541;53.230;10.518;2022-07-24T09:30:07;21.40;99.90
7002;DHT22;3541;53.230;10.518;2022-07-24T09:32:34;21.60;99.90
7002;DHT22;3541;53.230;10.518;2022-07-24T09:35:04;21.60;99.90
7002;DHT22;3541;53.230;10.518;2022-07-24T09:37:31;21.80;99.90
7002;DHT22;3541;53.230;10.518;2022-07-24T09:40:09;21.80;99.90
7002;DHT22;3541;53.230;10.518;2022-07-24T09:42:36;21.90;99.90
7002;DHT22;3541;53.230;10.518;2022-07-24T09:45:06;22.00;99.90
7002;DHT22;3541;53.230;10.518;2022-07-24T09:47:34;22.00;99.90
7002;DHT22;3541;53.230;10.518;2022-07-24T09:50:13;22.10;99.90
7002;DHT22;3541;53.230;10.518;2022-07-24T09:52:41;22.20;99.90
7002;DHT22;3541;53.230;10.518;2022-07-24T09:55:21;22.20;99.90
7002;DHT22;3541;53.230;10.518;2022-07-24T09:57:48;22.30;99.90
7002;DHT22;3541;53.230;10.518;2022-07-24T10:00:16;22.40;99.90
7002;DHT22;3541;53.230;10.518;2022-07-24T10:02:44;22.40;99.90
7002;DHT22;3541;53.230;10.518;2022-07-24T10:05:13;22.50;99.90
7002;DHT22;3541;53.230;10.518;2022-07-24T10:07:41;22.60;99.90
7002;DHT22;3541;53.230;10.518;2022-07-24T10:10:11;22.80;99.90
7002;DHT22;3541;53.230;10.518;2022-07-24T10:12:38;22.90;99.90
7002;DHT22;3541;53.230;10.518;2022-07-24T10:15:06;22.90;99.90
7002;DHT22;3541;53.230;10.518;2022-07-24T10:17:58;22.90;99.90
7002;DHT22;3541;53.230;10.518;2022-07-24T10:20:38;23.00;99.90
7002;DHT22;3541;53.230;10.518;2022-07-24T10:23:05;23.10;99.90
7002;DHT22;3541;53.230;10.518;2022-07-24T10:25:42;23.20;99.90
7002;DHT22;3541;53.230;10.518;2022-07-24T10:28:14;23.20;99.90
7002;DHT22;3541;53.230;10.518;2022-07-24T10:30:50;23.30;99.90
7002;DHT22;3541;53.230;10.518;2022-07-24T10:33:17;23.30;99.90
7002;DHT22;3541;53.230;10.518;2022-07-24T10:35:46;23.40;99.90
7002;DHT22;3541;53.230;10.518;2022-07-24T10:38:19;23.60;99.90
7002;DHT22;3541;53.230;10.518;2022-07-24T10:40:49;23.70;99.90
7002;DHT22;3541;53.230;10.518;2022-07-24T10:43:17;23.80;99.90
7002;DHT22;3541;53.230;10.518;2022-07-24T10:45:45;23.80;99.90
7002;DHT22;3541;53.230;10.518;2022-07-24T10:48:31;23.80;99.90
7002;DHT22;3541;53.230;10.518;2022-07-24T10:51:04;23.80;99.90
7002;DHT22;3541;53.230;10.518;2022-07-24T10:53:44;23.80;99.90
7002;DHT22;3541;53.230;10.518;2022-07-24T10:56:15;23.90;99.90
7002;DHT22;3541;53.230;10.518;2022-07-24T10:58:51;24.00;99.90
7002;DHT22;3541;53.230;10.518;2022-07-24T11:01:34;24.10;99.90
7002;DHT22;3541;53.230;10.518;2022-07-24T11:04:02;24.20;99.90
7002;DHT22;3541;53.230;10.518;2022-07-24T11:06:42;24.40;99.90
7002;DHT22;3541;53.230;10.518;2022-07-24T11:09:09;24.50;99.90
7002;DHT22;3541;53.230;10.518;2022-07-24T11:11:40;24.60;99.90
7002;DHT22;3541;53.230;10.518;2022-07-24T11:14:08;24.60;99.90
7002;DHT22;3541;53.230;10.518;2022-07-24T11:16:36;24.80;99.90
7002;DHT22;3541;53.230;10.518;2022-07-24T11:19:30;24.80;99.90
7002;DHT22;3541;53.230;10.518;2022-07-24T11:22:10;24.80;99.90
7002;DHT22;3541;53.230;10.518;2022-07-24T11:24:41;25.00;99.90
7002;DHT22;3541;53.230;10.518;2022-07-24T11:27:16;25.00;99.90
7002;DHT22;3541;53.230;10.518;2022-07-24T11:29:43;25.10;99.90
7002;DHT22;3541;53.230;10.518;2022-07-24T11:32:12;25.10;99.90
7002;DHT22;3541;53.230;10.518;2022-07-24T11:34:44;25.10;99.90
7002;DHT22;3541;53.230;10.518;2022-07-24T11:37:12;25.10;99.90
7002;DHT22;3541;53.230;10.518;2022-07-24T11:39:41;25.00;99.90
7002;DHT22;3541;53.230;10.518;2022-07-24T11:42:09;25.10;99.90
7002;DHT22;3541;53.230;10.518;2022-07-24T11:44:37;25.20;99.90
7002;DHT22;3541;53.230;10.518;2022-07-24T11:47:07;25.20;99.90
7002;DHT22;3541;53.230;10.518;2022-07-24T11:49:40;25.30;99.90
7002;DHT22;3541;53.230;10.518;2022-07-24T11:52:07;25.30;99.90
7002;DHT22;3541;53.230;10.518;2022-07-24T11:54:39;25.40;99.90
7002;DHT22;3541;53.230;10.518;2022-07-24T11:57:14;25.50;99.90
7002;DHT22;3541;53.230;10.518;2022-07-24T11:59:41;25.60;99.90
7002;DHT22;3541;53.230;10.518;2022-07-24T12:02:10;25.70;99.90
7002;DHT22;3541;53.230;10.518;2022-07-24T12:04:38;25.80;99.90
7002;DHT22;3541;53.230;10.518;2022-07-24T12:07:06;25.90;99.90
7002;DHT22;3541;53.230;10.518;2022-07-24T12:09:32;26.00;99.90
7002;DHT22;3541;53.230;10.518;2022-07-24T12:12:00;26.00;99.90
7002;DHT22;3541;53.230;10.518;2022-07-24T12:14:30;26.00;99.90
7002;DHT22;3541;53.230;10.518;2022-07-24T12:16:56;26.00;99.90
7002;DHT22;3541;53.230;10.518;2022-07-24T12:19:24;26.10;99.90
7002;DHT22;3541;53.230;10.518;2022-07-24T12:21:52;26.10;99.90
7002;DHT22;3541;53.230;10.518;2022-07-24T12:24:20;26.20;99.90
7002;DHT22;3541;53.230;10.518;2022-07-24T12:26:51;26.00;99.90
7002;DHT22;3541;53.230;10.518;2022-07-24T12:29:20;26.00;99.90
7002;DHT22;3541;53.230;10.518;2022-07-24T12:31:47;26.10;99.90
7002;DHT22;3541;53.230;10.518;2022-07-24T12:34:15;26.10;99.90
7002;DHT22;3541;53.230;10.518;2022-07-24T12:36:42;26.30;99.90
7002;DHT22;3541;53.230;10.518;2022-07-24T12:39:11;26.40;99.90
7002;DHT22;3541;53.230;10.518;2022-07-24T12:41:43;26.40;99.90
7002;DHT22;3541;53.230;10.518;2022-07-24T12:44:10;26.30;99.90
7002;DHT22;3541;53.230;10.518;2022-07-24T12:46:39;26.20;99.90
7002;DHT22;3541;53.230;10.518;2022-07-24T12:49:07;26.10;99.90
7002;DHT22;3541;53.230;10.518;2022-07-24T12:51:47;26.00;99.90
7002;DHT22;3541;53.230;10.518;2022-07-24T12:54:16;26.30;99.90
7002;DHT22;3541;53.230;10.518;2022-07-24T12:56:44;26.50;99.90
7002;DHT22;3541;53.230;10.518;2022-07-24T12:59:21;26.80;99.90
7002;DHT22;3541;53.230;10.518;2022-07-24T13:01:51;27.00;99.90
7002;DHT22;3541;53.230;10.518;2022-07-24T13:04:19;26.90;99.90
7002;DHT22;3541;53.230;10.518;2022-07-24T13:06:47;27.00;99.90
7002;DHT22;3541;53.230;10.518;2022-07-24T13:09:15;27.20;99.90
7002;DHT22;3541;53.230;10.518;2022-07-24T13:11:44;27.30;99.90
7002;DHT22;3541;53.230;10.518;2022-07-24T13:14:12;27.30;99.90
7002;DHT22;3541;53.230;10.518;2022-07-24T13:16:41;27.30;99.90
7002;DHT22;3541;53.230;10.518;2022-07-24T13:19:10;27.40;99.90
7002;DHT22;3541;53.230;10.518;2022-07-24T13:21:38;27.40;99.90
7002;DHT22;3541;53.230;10.518;2022-07-24T13:24:06;27.50;99.90
7002;DHT22;3541;53.230;10.518;2022-07-24T13:26:33;27.60;99.90
7002;DHT22;3541;53.230;10.518;2022-07-24T13:28:59;27.70;99.90
7002;DHT22;3541;53.230;10.518;2022-07-24T13:31:26;27.70;99.90
7002;DHT22;3541;53.230;10.518;2022-07-24T13:33:52;27.80;99.90
7002;DHT22;3541;53.230;10.518;2022-07-24T13:36:21;27.80;99.90
7002;DHT22;3541;53.230;10.518;2022-07-24T13:38:47;27.90;99.90
7002;DHT22;3541;53.230;10.518;2022-07-24T13:41:15;27.90;99.90
7002;DHT22;3541;53.230;10.518;2022-07-24T13:43:43;28.00;99.90
7002;DHT22;3541;53.230;10.518;2022-07-24T13:46:10;28.00;99.90
7002;DHT22;3541;53.230;10.518;2022-07-24T13:48:38;28.10;99.90
7002;DHT22;3541;53.230;10.518;2022-07-24T13:51:04;28.20;99.90
7002;DHT22;3541;53.230;10.518;2022-07-24T13:53:33;28.10;99.90
7002;DHT22;3541;53.230;10.518;2022-07-24T13:56:00;28.30;99.90
7002;DHT22;3541;53.230;10.518;2022-07-24T13:58:26;28.50;99.90
7002;DHT22;3541;53.230;10.518;2022-07-24T14:00:53;28.50;99.90
7002;DHT22;3541;53.230;10.518;2022-07-24T14:03:19;28.40;99.90
7002;DHT22;3541;53.230;10.518;2022-07-24T14:05:46;28.40;99.90
7002;DHT22;3541;53.230;10.518;2022-07-24T14:08:12;28.50;99.90
7002;DHT22;3541;53.230;10.518;2022-07-24T14:10:40;28.70;99.90
7002;DHT22;3541;53.230;10.518;2022-07-24T14:13:07;28.80;99.90
7002;DHT22;3541;53.230;10.518;2022-07-24T14:15:33;29.20;99.90
7002;DHT22;3541;53.230;10.518;2022-07-24T14:18:00;29.40;99.90
7002;DHT22;3541;53.230;10.518;2022-07-24T14:20:27;29.60;99.90
7002;DHT22;3541;53.230;10.518;2022-07-24T14:22:53;29.60;99.90
7002;DHT22;3541;53.230;10.518;2022-07-24T14:25:20;29.40;99.90
7002;DHT22;3541;53.230;10.518;2022-07-24T14:27:48;29.50;99.90
7002;DHT22;3541;53.230;10.518;2022-07-24T14:30:15;29.50;99.90
7002;DHT22;3541;53.230;10.518;2022-07-24T14:32:41;29.20;99.90
7002;DHT22;3541;53.230;10.518;2022-07-24T14:35:08;29.10;99.90
7002;DHT22;3541;53.230;10.518;2022-07-24T14:37:36;29.40;99.90
7002;DHT22;3541;53.230;10.518;2022-07-24T14:40:04;29.70;99.40
7002;DHT22;3541;53.230;10.518;2022-07-24T14:42:32;30.00;99.00
7002;DHT22;3541;53.230;10.518;2022-07-24T14:45:00;30.10;98.60
7002;DHT22;3541;53.230;10.518;2022-07-24T14:47:27;30.30;98.10
7002;DHT22;3541;53.230;10.518;2022-07-24T14:49:54;30.50;97.80
7002;DHT22;3541;53.230;10.518;2022-07-24T14:52:21;30.50;97.00
7002;DHT22;3541;53.230;10.518;2022-07-24T14:54:48;30.50;96.50
7002;DHT22;3541;53.230;10.518;2022-07-24T14:57:15;30.70;96.40
7002;DHT22;3541;53.230;10.518;2022-07-24T14:59:42;30.80;96.40
7002;DHT22;3541;53.230;10.518;2022-07-24T15:02:10;30.80;96.10
7002;DHT22;3541;53.230;10.518;2022-07-24T15:04:37;30.90;96.00
7002;DHT22;3541;53.230;10.518;2022-07-24T15:07:04;30.90;95.40
7002;DHT22;3541;53.230;10.518;2022-07-24T15:09:30;30.80;95.60
7002;DHT22;3541;53.230;10.518;2022-07-24T15:11:57;30.60;95.10
7002;DHT22;3541;53.230;10.518;2022-07-24T15:14:23;30.20;95.30
7002;DHT22;3541;53.230;10.518;2022-07-24T15:16:50;30.00;95.80
7002;DHT22;3541;53.230;10.518;2022-07-24T15:19:18;30.30;95.60
7002;DHT22;3541;53.230;10.518;2022-07-24T15:21:45;30.50;95.50
7002;DHT22;3541;53.230;10.518;2022-07-24T15:24:11;30.70;94.90
7002;DHT22;3541;53.230;10.518;2022-07-24T15:26:39;30.60;94.50
7002;DHT22;3541;53.230;10.518;2022-07-24T15:29:06;30.80;94.70
7002;DHT22;3541;53.230;10.518;2022-07-24T15:31:33;30.60;94.00
7002;DHT22;3541;53.230;10.518;2022-07-24T15:33:59;30.50;94.10
7002;DHT22;3541;53.230;10.518;2022-07-24T15:36:27;30.70;93.80
7002;DHT22;3541;53.230;10.518;2022-07-24T15:38:54;30.80;93.40
7002;DHT22;3541;53.230;10.518;2022-07-24T15:41:20;30.80;93.10
7002;DHT22;3541;53.230;10.518;2022-07-24T15:43:47;30.90;93.50
7002;DHT22;3541;53.230;10.518;2022-07-24T15:46:14;31.00;93.60
7002;DHT22;3541;53.230;10.518;2022-07-24T15:48:40;31.00;92.80